• Join FlightAware (Why Join?)
  • Login
  • US Flag 
10:09AM EDT


 

Airport Tracker/Info


-or-


 

Live Flight TrackerFlight Track Log ✈ UAL363 ✈ 26-Jun-2013 ✈ KBOS - KIAD

Flight Track Log - Related Links

Times and Time Zones

All times are in EDT time to prevent confusion due to time zone crossing. See the UAL363 flight status page for this flight to view local times or setup timezone preferences in your user account.

Time Position Orientation Groundspeed Altitude Reporting Facility
EDT Latitude Longitude Course Direction KTS MPH feet Rate Location/Type
09:03PM 42.3667 -70.9833 278° West 144 166 600  Level KA90
09:05PM 42.3833 -70.8833 77° East 225 259 3,500 2,400 Climbing KA90
09:06PM 42.3883 -70.7844 86° East 325 374 6,500 2,880 Climbing Boston Center
09:07PM 42.2458 -70.7979 228° Southwest  Level FlightAware Approximate
09:07PM 42.3269 -70.7269 145° Southeast 229 264 9,700  Level Boston Center
09:08PM 42.1855 -70.9282 240° Southwest  Level FlightAware Approximate
09:08PM 42.2547 -70.7628 200° South 207 238 12,600  Level Boston Center
09:09PM 42.1947 -71.0804 278° West  Level FlightAware Approximate
09:09PM 42.2250 -70.8756 250° West 207 238 13,800  Level Boston Center
09:10PM 42.2203 -70.9992 267° West 315 362 16,200 2,700 Climbing Boston Center
09:11PM 42.2181 -71.1589 269° West 385 443 19,200 2,700 Climbing Boston Center
09:12PM 42.2156 -71.3047 269° West 399 459 21,600 2,340 Climbing Boston Center
09:13PM 42.2106 -71.4506 267° West 399 459 23,900 2,100 Climbing Boston Center
09:14PM 42.2011 -71.5797 264° West 404 465 25,800 1,620 Climbing Boston Center
09:15PM 42.1856 -71.7311 262° West 404 465 27,200 1,440 Climbing Boston Center
09:16PM 42.1594 -71.8856 257° West 416 479 28,700 1,380 Climbing Boston Center
09:17PM 42.1350 -72.0481 259° West 427 491 30,000 600 Climbing Boston Center
09:18PM 42.1064 -72.2050 256° West 432 497 30,000  Level Boston Center
09:19PM 42.0794 -72.3589 257° West 432 497 30,000 -180 Level Boston Center
09:20PM 42.0522 -72.5156 257° West 432 497 29,700 -720 Descending Boston Center
09:21PM 42.0189 -72.6608 253° West 427 491 28,600 -900 Descending Boston Center
09:22PM 41.9517 -72.7889 235° Southwest 406 467 27,900 -300 Descending Boston Center
09:23PM 41.8806 -72.9169 233° Southwest 419 482 28,000  Climbing Boston Center
09:24PM 41.7986 -73.0583 232° Southwest 444 511 28,000  Level Boston Center
09:25PM 41.7269 -73.1856 233° Southwest 444 511 28,000  Level Boston Center
09:26PM 41.6550 -73.3125 233° Southwest 438 504 28,000  Level Boston Center
09:28PM 41.5378 -73.5178 233° Southwest 438 504 28,000 -60 Level New York Center
09:29PM 41.4642 -73.6419 232° Southwest 438 504 27,900 -60 Descending New York Center
09:30PM 41.3942 -73.7772 235° Southwest 443 510 27,900  Level New York Center
09:31PM 41.3261 -73.9122 236° Southwest 443 510 27,900  Level New York Center
09:32PM 41.2619 -74.0444 237° Southwest 438 504 28,000  Climbing New York Center
09:33PM 41.1978 -74.1819 238° Southwest 438 504 27,900 -120 Descending New York Center
09:34PM 41.1183 -74.3322 235° Southwest 443 510 27,800 -660 Descending New York Center
09:35PM 41.0517 -74.4636 236° Southwest 443 510 26,700 -960 Descending New York Center
09:36PM 40.9875 -74.5892 236° Southwest 437 503 25,900 -360 Descending New York Center
09:37PM 40.9206 -74.7200 236° Southwest 432 497 26,000  Climbing New York Center
09:38PM 40.8578 -74.8508 238° Southwest 427 491 25,900  Descending New York Center
09:39PM 40.7928 -74.9783 236° Southwest 427 491 26,000  Climbing New York Center
09:40PM 40.7319 -75.1061 238° Southwest 427 491 25,900  Descending New York Center
09:41PM 40.6667 -75.2361 237° Southwest 427 491 26,000  Climbing New York Center
09:42PM 40.6081 -75.3525 236° Southwest 429 494 25,900 -780 Descending New York Center
09:43PM 40.5406 -75.4792 235° Southwest 429 494 24,500 -1,620 Descending New York Center
09:44PM 40.4750 -75.6083 236° Southwest 423 487 22,700 -1,380 Descending New York Center
09:45PM 40.4136 -75.7322 237° Southwest 423 487 21,700 -1,020 Descending New York Center
09:46PM 40.3478 -75.8583 236° Southwest 423 487 20,700 -900 Descending New York Center
09:47PM 40.2775 -75.9864 234° Southwest 417 480 20,000 -900 Descending New York Center
09:48PM 40.2269 -76.0914 238° Southwest 396 456 18,900 -1,200 Descending New York Center
09:49PM 40.1678 -76.2036 235° Southwest 377 434 17,600 -1,020 Descending New York Center
09:50PM 40.1036 -76.3261 236° Southwest 377 434 17,000 -780 Descending New York Center
09:51PM 40.0500 -76.4439 239° Southwest 377 434 16,100 -780 Descending New York Center
09:52PM 39.9667 -76.6333 240° Southwest 366 421 15,000 -480 Descending Potomac TRACON
09:53PM 39.9000 -76.7500 233° Southwest 362 417 14,900 -420 Descending Potomac TRACON
09:54PM 39.8500 -76.8667 241° Southwest 360 414 14,200 -900 Descending Potomac TRACON
09:55PM 39.8000 -76.9667 237° Southwest 355 409 13,200 -1,080 Descending Potomac TRACON
09:56PM 39.7500 -77.0833 241° Southwest 346 398 12,100 -1,140 Descending Potomac TRACON
09:57PM 39.7000 -77.1833 237° Southwest 340 391 11,000 -900 Descending Potomac TRACON
09:58PM 39.6500 -77.2667 232° Southwest 328 377 10,300 -900 Descending Potomac TRACON
10:00PM 39.5648 -77.3333 180° South  Level FlightAware Approximate
10:00PM 39.5000 -77.3667 180° South 291 335 8,400  Level Potomac TRACON
10:01PM 39.4333 -77.4167 210° Southwest 285 328 7,400 -960 Descending Potomac TRACON
10:02PM 39.3500 -77.4500 197° South 284 327 6,400 -720 Descending Potomac TRACON
10:03PM 39.2833 -77.4500 180° South 262 302 5,900 -600 Descending Potomac TRACON
10:04PM 39.2167 -77.4667 191° South 218 251 5,200 -960 Descending Potomac TRACON
10:05PM 39.1667 -77.4667 180° South 212 244 4,100 -1,200 Descending Potomac TRACON